createdAt,value
2018-03-04T00:02:05.918Z,99.60
2018-03-04T00:04:33.416Z,99.70
2018-03-04T00:07:00.936Z,99.70
2018-03-04T00:09:28.435Z,99.70
2018-03-04T00:11:55.954Z,99.70
2018-03-04T00:14:23.446Z,99.50
2018-03-04T00:16:50.944Z,99.40
2018-03-04T00:19:19.247Z,99.60
2018-03-04T00:21:46.792Z,99.60
2018-03-04T00:24:14.294Z,99.60
2018-03-04T00:26:41.803Z,99.40
2018-03-04T00:29:09.287Z,99.40
2018-03-04T00:31:36.812Z,99.10
2018-03-04T00:34:05.106Z,99.70
2018-03-04T00:36:32.632Z,99.70
2018-03-04T00:39:00.135Z,99.70
2018-03-04T00:41:27.631Z,99.80
2018-03-04T00:43:55.134Z,99.90
2018-03-04T00:46:23.380Z,99.90
2018-03-04T00:48:50.894Z,99.90
2018-03-04T00:51:18.383Z,99.90
2018-03-04T00:53:45.908Z,99.70
2018-03-04T00:56:13.413Z,99.70
2018-03-04T00:58:40.917Z,99.70
2018-03-04T01:01:08.413Z,99.60
2018-03-04T01:03:35.916Z,99.70
2018-03-04T01:06:03.409Z,99.60
2018-03-04T01:08:30.917Z,99.60
2018-03-04T01:10:58.425Z,99.70
2018-03-04T01:13:25.922Z,99.90
2018-03-04T01:15:53.416Z,99.90
2018-03-04T01:18:20.898Z,99.70
2018-03-04T01:20:48.398Z,99.60
2018-03-04T01:23:15.889Z,99.60
2018-03-04T01:25:43.408Z,99.80
2018-03-04T01:28:10.902Z,99.90
2018-03-04T01:30:38.470Z,99.80
2018-03-04T01:33:05.991Z,99.80
2018-03-04T01:35:33.497Z,99.80
2018-03-04T01:38:01.019Z,99.80
2018-03-04T01:40:28.516Z,99.90
2018-03-04T01:42:56.028Z,99.70
2018-03-04T01:45:24.315Z,99.90
2018-03-04T01:47:53.429Z,99.90
2018-03-04T01:50:21.001Z,99.90
2018-03-04T01:52:48.540Z,99.90
2018-03-04T01:55:16.058Z,99.90
2018-03-04T01:57:43.568Z,99.90
2018-03-04T02:00:11.064Z,99.90
2018-03-04T02:02:38.580Z,99.90
2018-03-04T02:05:06.069Z,99.90
2018-03-04T02:07:33.564Z,99.90
2018-03-04T02:10:01.826Z,99.90
2018-03-04T02:12:29.320Z,99.90
2018-03-04T02:14:56.837Z,99.90
2018-03-04T02:17:24.337Z,99.90
2018-03-04T02:19:51.837Z,99.90
2018-03-04T02:22:19.340Z,99.90
2018-03-04T02:24:47.587Z,99.90
2018-03-04T02:27:15.261Z,99.90
2018-03-04T02:29:43.574Z,99.90
2018-03-04T02:32:11.072Z,99.90
2018-03-04T02:34:38.593Z,99.90
2018-03-04T02:37:06.083Z,99.90
2018-03-04T02:39:33.655Z,99.90
2018-03-04T02:42:01.197Z,99.90
2018-03-04T02:44:28.673Z,99.90
2018-03-04T02:46:56.266Z,99.90
2018-03-04T02:49:23.752Z,99.90
2018-03-04T02:51:51.264Z,99.90
2018-03-04T02:54:18.756Z,99.90
2018-03-04T02:56:46.267Z,99.90
2018-03-04T02:59:13.799Z,99.90
2018-03-04T03:01:41.293Z,99.90
2018-03-04T03:04:09.026Z,99.90
2018-03-04T03:06:36.516Z,99.90
2018-03-04T03:09:04.003Z,99.90
2018-03-04T03:11:32.296Z,99.90
2018-03-04T03:13:59.792Z,99.90
2018-03-04T03:16:27.312Z,99.90
2018-03-04T03:18:54.811Z,99.90
2018-03-04T03:21:22.295Z,99.90
2018-03-04T03:23:50.585Z,99.90
2018-03-04T03:26:18.075Z,99.90
2018-03-04T03:28:45.588Z,99.90
2018-03-04T03:31:13.863Z,99.90
2018-03-04T03:33:41.366Z,99.90
2018-03-04T03:36:08.868Z,99.90
2018-03-04T03:38:37.126Z,99.90
2018-03-04T03:41:04.651Z,99.90
2018-03-04T03:43:32.149Z,99.90
2018-03-04T03:45:59.632Z,99.90
2018-03-04T03:48:27.443Z,99.90
2018-03-04T03:50:54.938Z,99.90
2018-03-04T03:53:22.452Z,99.80
2018-03-04T03:55:50.221Z,99.80
2018-03-04T03:58:17.715Z,99.90
2018-03-04T04:00:45.259Z,99.90
2018-03-04T04:03:12.751Z,99.90
2018-03-04T04:05:41.029Z,99.90
2018-03-04T04:08:08.523Z,99.90
2018-03-04T04:10:36.033Z,99.90
2018-03-04T04:13:04.313Z,99.90
2018-03-04T04:15:32.564Z,99.90
2018-03-04T04:18:00.079Z,99.90
2018-03-04T04:20:27.567Z,99.90
2018-03-04T04:22:55.082Z,99.90
2018-03-04T04:25:22.612Z,99.90
2018-03-04T04:27:50.115Z,99.90
2018-03-04T04:30:17.624Z,99.90
2018-03-04T04:32:45.125Z,99.90
2018-03-04T04:35:13.328Z,99.90
2018-03-04T04:37:40.944Z,99.90
2018-03-04T04:40:08.750Z,99.90
2018-03-04T04:42:37.123Z,99.90
2018-03-04T04:45:04.619Z,99.90
2018-03-04T04:47:32.103Z,99.90
2018-03-04T04:49:59.600Z,99.90
2018-03-04T04:52:27.084Z,99.90
2018-03-04T04:54:54.603Z,99.90
2018-03-04T04:57:22.100Z,99.90
2018-03-04T04:59:49.584Z,99.90
2018-03-04T05:02:17.944Z,99.90
2018-03-04T05:04:45.444Z,99.90
2018-03-04T05:07:12.953Z,99.90
2018-03-04T05:09:40.447Z,99.90
2018-03-04T05:12:08.036Z,99.90
2018-03-04T05:14:35.548Z,99.90
2018-03-04T05:17:03.024Z,99.90
2018-03-04T05:19:30.569Z,99.90
2018-03-04T05:21:58.067Z,99.90
2018-03-04T05:24:25.572Z,99.90
2018-03-04T05:26:53.073Z,99.90
2018-03-04T05:29:20.561Z,99.90
2018-03-04T05:31:48.056Z,99.90
2018-03-04T05:34:16.302Z,99.90
2018-03-04T05:36:43.805Z,99.90
2018-03-04T05:39:11.292Z,99.90
2018-03-04T05:41:38.769Z,99.90
2018-03-04T05:44:06.263Z,99.90
2018-03-04T05:46:33.757Z,99.90
2018-03-04T05:49:01.269Z,99.90
2018-03-04T05:51:29.540Z,99.90
2018-03-04T05:53:57.043Z,99.90
2018-03-04T05:56:24.543Z,99.90
2018-03-04T05:58:52.043Z,99.90
2018-03-04T06:01:19.527Z,99.90
2018-03-04T06:03:47.038Z,99.90
2018-03-04T06:06:14.539Z,99.90
2018-03-04T06:08:43.047Z,99.90
2018-03-04T06:11:12.248Z,99.90
2018-03-04T06:13:39.726Z,99.90
2018-03-04T06:16:07.252Z,99.90
2018-03-04T06:18:34.773Z,99.90
2018-03-04T06:21:02.261Z,99.90
2018-03-04T06:23:29.751Z,99.90
2018-03-04T06:25:57.253Z,99.90
2018-03-04T06:28:24.771Z,99.90
2018-03-04T06:30:52.251Z,99.90
2018-03-04T06:33:19.741Z,99.90
2018-03-04T06:35:47.248Z,99.90
2018-03-04T06:38:15.703Z,99.90
2018-03-04T06:40:43.235Z,99.90
2018-03-04T06:43:10.719Z,99.90
2018-03-04T06:45:38.210Z,99.90
2018-03-04T06:48:06.477Z,99.90
2018-03-04T06:50:34.768Z,99.90
2018-03-04T06:53:03.026Z,99.90
2018-03-04T06:55:31.277Z,99.90
2018-03-04T06:57:58.771Z,99.90
2018-03-04T07:00:26.314Z,99.90
2018-03-04T07:02:54.595Z,99.90
2018-03-04T07:05:22.860Z,99.90
2018-03-04T07:07:50.357Z,99.90
2018-03-04T07:10:18.158Z,99.90
2018-03-04T07:12:46.238Z,99.90
2018-03-04T07:15:13.816Z,99.90
2018-03-04T07:17:41.380Z,99.90
2018-03-04T07:20:08.876Z,99.90
2018-03-04T07:22:36.405Z,99.90
2018-03-04T07:25:04.647Z,99.90
2018-03-04T07:27:32.909Z,99.90
2018-03-04T07:30:00.412Z,99.90
2018-03-04T07:32:28.686Z,99.90
2018-03-04T07:34:56.960Z,99.90
2018-03-04T07:37:25.215Z,99.90
2018-03-04T07:39:52.702Z,99.90
2018-03-04T07:42:20.241Z,99.90
2018-03-04T07:44:47.769Z,99.90
2018-03-04T07:47:15.249Z,99.90
2018-03-04T07:49:42.862Z,99.90
2018-03-04T07:52:10.384Z,99.90
2018-03-04T07:54:37.868Z,99.90
2018-03-04T07:57:05.372Z,99.90
2018-03-04T07:59:32.905Z,99.90
2018-03-04T08:02:01.106Z,99.90
2018-03-04T08:04:29.181Z,99.90
2018-03-04T08:06:56.675Z,99.90
2018-03-04T08:09:24.941Z,99.90
2018-03-04T08:11:52.446Z,99.90
2018-03-04T08:14:19.942Z,99.90
2018-03-04T08:16:47.452Z,99.90
2018-03-04T08:19:14.959Z,99.90
2018-03-04T08:21:42.481Z,99.90
2018-03-04T08:24:10.032Z,99.90
2018-03-04T08:26:49.279Z,99.90
2018-03-04T08:29:16.775Z,99.90
2018-03-04T08:31:44.259Z,99.90
2018-03-04T08:34:11.772Z,99.90
2018-03-04T08:36:39.246Z,99.90
2018-03-04T08:39:06.753Z,99.90
2018-03-04T08:41:34.265Z,99.60
2018-03-04T08:44:01.788Z,99.60
2018-03-04T08:46:29.303Z,99.50
2018-03-04T08:48:57.545Z,99.30
2018-03-04T08:51:25.041Z,99.20
2018-03-04T08:53:52.580Z,99.40
2018-03-04T08:56:20.844Z,99.90
2018-03-04T08:58:48.391Z,99.90
2018-03-04T09:01:15.880Z,99.90
2018-03-04T09:03:43.392Z,99.90
2018-03-04T09:06:10.895Z,99.90
2018-03-04T09:08:38.411Z,99.90
2018-03-04T09:11:05.908Z,99.60
2018-03-04T09:13:34.175Z,99.70
2018-03-04T09:16:01.681Z,99.60
2018-03-04T09:18:29.187Z,99.60
2018-03-04T09:20:56.688Z,99.70
2018-03-04T09:23:24.200Z,99.70
2018-03-04T09:25:51.729Z,99.20
2018-03-04T09:28:19.237Z,98.60
2018-03-04T09:30:46.808Z,97.70
2018-03-04T09:33:14.340Z,97.40
2018-03-04T09:35:42.602Z,97.30
2018-03-04T09:38:10.114Z,97.20
2018-03-04T09:40:37.700Z,98.10
2018-03-04T09:43:05.210Z,97.80
2018-03-04T09:45:32.766Z,97.10
2018-03-04T09:48:00.271Z,98.20
2018-03-04T09:50:27.748Z,98.30
2018-03-04T09:52:55.270Z,98.20
2018-03-04T09:55:22.988Z,98.40
2018-03-04T09:57:51.335Z,98.80
2018-03-04T10:00:18.838Z,98.70
2018-03-04T10:02:46.318Z,98.40
2018-03-04T10:05:13.843Z,98.10
2018-03-04T10:07:41.337Z,97.40
2018-03-04T10:10:08.834Z,97.80
2018-03-04T10:12:36.334Z,97.20
2018-03-04T10:15:04.633Z,96.80
2018-03-04T10:17:32.120Z,96.80
2018-03-04T10:19:59.633Z,97.50
2018-03-04T10:22:27.139Z,96.50
2018-03-04T10:24:54.864Z,96.10
2018-03-04T10:27:22.357Z,95.30
2018-03-04T10:29:49.868Z,95.70
2018-03-04T10:32:17.413Z,95.30
2018-03-04T10:34:45.721Z,95.10
2018-03-04T10:37:15.142Z,95.10
2018-03-04T10:39:42.676Z,95.00
2018-03-04T10:42:10.168Z,94.40
2018-03-04T10:44:37.656Z,94.80
2018-03-04T10:47:05.184Z,94.60
2018-03-04T10:49:32.722Z,94.40
2018-03-04T10:52:00.298Z,94.20
2018-03-04T10:54:27.998Z,94.20
2018-03-04T10:56:56.255Z,94.70
2018-03-04T10:59:23.744Z,94.70
2018-03-04T11:01:52.047Z,94.10
2018-03-04T11:04:19.541Z,94.00
2018-03-04T11:06:47.768Z,93.50
2018-03-04T11:09:15.268Z,93.40
2018-03-04T11:11:42.783Z,93.70
2018-03-04T11:14:10.261Z,92.70
2018-03-04T11:16:37.770Z,92.50
2018-03-04T11:19:05.288Z,92.60
2018-03-04T11:21:32.860Z,92.70
2018-03-04T11:24:00.375Z,92.10
2018-03-04T11:26:27.858Z,91.80
2018-03-04T11:28:55.371Z,91.60
2018-03-04T11:31:23.662Z,90.80
2018-03-04T11:33:51.187Z,90.90
2018-03-04T11:36:18.690Z,89.20
2018-03-04T11:38:46.624Z,89.10
2018-03-04T11:41:14.899Z,89.80
2018-03-04T11:43:43.186Z,90.10
2018-03-04T11:46:10.693Z,90.10
2018-03-04T11:48:38.183Z,89.30
2018-03-04T11:51:05.667Z,90.00
2018-03-04T11:53:33.164Z,89.60
2018-03-04T11:56:00.708Z,90.20
2018-03-04T11:58:28.182Z,89.10
2018-03-04T12:00:55.712Z,87.80
2018-03-04T12:03:23.202Z,88.70
2018-03-04T12:05:50.707Z,88.50
2018-03-04T12:08:18.987Z,87.50
2018-03-04T12:10:47.226Z,83.40
2018-03-04T12:13:14.726Z,82.70
2018-03-04T12:15:42.972Z,82.50
2018-03-04T12:18:10.476Z,82.40
2018-03-04T12:20:38.771Z,86.80
2018-03-04T12:23:06.288Z,86.00
2018-03-04T12:25:34.555Z,85.20
2018-03-04T12:28:02.057Z,85.10
2018-03-04T12:30:29.560Z,85.40
2018-03-04T12:32:57.836Z,83.50
2018-03-04T12:35:25.335Z,83.40
2018-03-04T12:37:52.850Z,83.80
2018-03-04T12:40:20.414Z,83.70
2018-03-04T12:42:48.698Z,85.40
2018-03-04T12:45:16.975Z,84.60
2018-03-04T12:47:45.243Z,84.50
2018-03-04T12:50:12.778Z,84.50
2018-03-04T12:52:40.272Z,82.40
2018-03-04T12:55:07.795Z,82.10
2018-03-04T12:57:35.278Z,83.70
2018-03-04T13:00:03.540Z,79.90
2018-03-04T13:02:31.075Z,79.80
2018-03-04T13:04:58.581Z,79.00
2018-03-04T13:07:26.896Z,80.30
2018-03-04T13:09:54.416Z,80.20
2018-03-04T13:12:22.667Z,80.90
2018-03-04T13:14:50.183Z,80.90
2018-03-04T13:17:17.711Z,82.80
2018-03-04T13:19:45.208Z,82.60
2018-03-04T13:22:12.695Z,82.00
2018-03-04T13:24:40.969Z,81.60
2018-03-04T13:27:08.450Z,81.80
2018-03-04T13:29:36.721Z,85.70
2018-03-04T13:32:05.019Z,86.60
2018-03-04T13:34:33.275Z,85.90
2018-03-04T13:37:00.798Z,85.80
2018-03-04T13:39:28.317Z,86.10
2018-03-04T13:41:55.825Z,86.90
2018-03-04T13:44:23.307Z,85.70
2018-03-04T13:46:51.572Z,84.50
2018-03-04T13:49:19.065Z,84.50
2018-03-04T13:51:46.540Z,84.60
2018-03-04T13:54:14.043Z,82.20
2018-03-04T13:56:41.539Z,81.80
2018-03-04T13:59:09.030Z,81.20
2018-03-04T14:01:37.361Z,81.00
2018-03-04T14:04:05.633Z,80.10
2018-03-04T14:06:33.906Z,79.00
2018-03-04T14:09:01.416Z,78.80
2018-03-04T14:11:28.976Z,79.10
2018-03-04T14:13:56.476Z,79.10
2018-03-04T14:16:24.007Z,78.30
2018-03-04T14:18:51.551Z,77.80
2018-03-04T14:21:19.059Z,78.10
2018-03-04T14:23:46.568Z,80.00
2018-03-04T14:26:14.058Z,82.00
2018-03-04T14:28:41.571Z,83.90
2018-03-04T14:31:09.094Z,85.70
2018-03-04T14:33:36.608Z,86.50
2018-03-04T14:36:04.100Z,86.70
2018-03-04T14:38:32.432Z,87.40
2018-03-04T14:40:59.911Z,87.40
2018-03-04T14:43:27.418Z,87.10
2018-03-04T14:45:54.891Z,87.00
2018-03-04T14:48:22.385Z,87.60
2018-03-04T14:50:49.870Z,88.70
2018-03-04T14:53:18.131Z,89.50
2018-03-04T14:55:45.640Z,89.30
2018-03-04T14:58:13.155Z,89.30
2018-03-04T15:00:40.659Z,89.90
2018-03-04T15:03:08.146Z,90.10
2018-03-04T15:05:35.649Z,90.40
2018-03-04T15:08:03.138Z,90.60
2018-03-04T15:10:30.699Z,91.00
2018-03-04T15:12:58.679Z,91.50
2018-03-04T15:15:26.260Z,91.70
2018-03-04T15:17:54.603Z,92.50
2018-03-04T15:20:22.304Z,92.50
2018-03-04T15:22:49.824Z,92.60
2018-03-04T15:25:17.350Z,92.90
2018-03-04T15:27:44.840Z,93.10
2018-03-04T15:30:12.359Z,93.40
2018-03-04T15:32:40.610Z,93.70
2018-03-04T15:35:08.097Z,93.60
2018-03-04T15:37:36.477Z,93.80
2018-03-04T15:40:03.958Z,93.80
2018-03-04T15:42:31.509Z,93.70
2018-03-04T15:44:59.012Z,93.60
2018-03-04T15:47:26.483Z,93.60
2018-03-04T15:49:54.066Z,93.90
2018-03-04T15:52:21.531Z,94.00
2018-03-04T15:54:49.044Z,94.10
2018-03-04T15:57:16.546Z,94.20
2018-03-04T15:59:44.097Z,93.90
2018-03-04T16:02:11.659Z,93.80
2018-03-04T16:04:39.151Z,93.80
2018-03-04T16:07:06.699Z,93.60
2018-03-04T16:09:34.176Z,93.60
2018-03-04T16:12:01.671Z,93.50
2018-03-04T16:14:29.973Z,93.50
2018-03-04T16:16:58.248Z,93.30
2018-03-04T16:19:25.763Z,93.30
2018-03-04T16:21:53.282Z,93.40
2018-03-04T16:24:21.217Z,93.30
2018-03-04T16:26:49.491Z,93.40
2018-03-04T16:29:17.744Z,93.40
2018-03-04T16:31:45.237Z,93.30
2018-03-04T16:34:12.784Z,93.50
2018-03-04T16:36:41.033Z,93.80
2018-03-04T16:39:08.543Z,93.70
2018-03-04T16:41:36.045Z,93.70
2018-03-04T16:44:05.085Z,93.70
2018-03-04T16:46:32.594Z,93.60
2018-03-04T16:49:00.100Z,93.70
2018-03-04T16:51:27.613Z,93.70
2018-03-04T16:53:58.453Z,93.50
2018-03-04T16:56:25.975Z,93.50
2018-03-04T16:58:53.529Z,93.50
2018-03-04T17:01:21.042Z,93.40
2018-03-04T17:03:49.335Z,93.60
2018-03-04T17:06:17.604Z,93.70
2018-03-04T17:08:45.909Z,93.80
2018-03-04T17:11:13.418Z,93.70
2018-03-04T17:13:40.912Z,93.80
2018-03-04T17:16:08.417Z,93.80
2018-03-04T17:18:35.931Z,93.90
2018-03-04T17:21:03.414Z,93.80
2018-03-04T17:23:30.927Z,93.80
2018-03-04T17:25:58.433Z,93.80
2018-03-04T17:28:25.933Z,93.90
2018-03-04T17:30:53.462Z,93.90
2018-03-04T17:33:20.962Z,93.90
2018-03-04T17:35:49.238Z,93.90
2018-03-04T17:38:16.759Z,93.80
2018-03-04T17:40:44.264Z,93.60
2018-03-04T17:43:11.822Z,93.80
2018-03-04T17:45:39.319Z,93.80
2018-03-04T17:48:06.821Z,93.80
2018-03-04T17:50:35.133Z,93.80
2018-03-04T17:53:02.659Z,93.80
2018-03-04T17:55:30.938Z,93.80
2018-03-04T17:57:59.195Z,93.90
2018-03-04T18:00:26.817Z,93.90
2018-03-04T18:02:54.352Z,93.90
2018-03-04T18:05:21.845Z,94.00
2018-03-04T18:07:49.709Z,94.40
2018-03-04T18:10:17.212Z,94.10
2018-03-04T18:12:44.744Z,94.20
2018-03-04T18:15:12.297Z,94.30
2018-03-04T18:17:39.782Z,94.40
2018-03-04T18:20:07.279Z,94.50
2018-03-04T18:22:34.766Z,94.50
2018-03-04T18:25:02.295Z,94.60
2018-03-04T18:27:38.230Z,94.70
2018-03-04T18:30:05.771Z,94.80
2018-03-04T18:32:34.035Z,95.00
2018-03-04T18:35:01.523Z,94.90
2018-03-04T18:37:29.827Z,95.00
2018-03-04T18:39:57.306Z,94.90
2018-03-04T18:42:24.815Z,95.10
2018-03-04T18:44:52.363Z,95.10
2018-03-04T18:47:20.644Z,95.30
2018-03-04T18:49:48.934Z,95.40
2018-03-04T18:52:17.203Z,95.50
2018-03-04T18:54:45.482Z,95.50
2018-03-04T18:57:12.960Z,95.40
2018-03-04T18:59:40.476Z,95.50
2018-03-04T19:02:07.997Z,95.60
2018-03-04T19:04:35.488Z,95.80
2018-03-04T19:07:03.013Z,95.80
2018-03-04T19:09:30.517Z,95.80
2018-03-04T19:11:58.089Z,95.80
2018-03-04T19:14:25.597Z,96.20
2018-03-04T19:16:53.154Z,95.80
2018-03-04T19:19:20.665Z,95.70
2018-03-04T19:21:48.316Z,95.30
2018-03-04T19:24:16.597Z,94.70
2018-03-04T19:26:44.091Z,94.70
2018-03-04T19:29:11.591Z,94.70
2018-03-04T19:31:39.087Z,94.60
2018-03-04T19:34:06.594Z,94.70
2018-03-04T19:36:34.137Z,94.80
2018-03-04T19:39:01.692Z,94.80
2018-03-04T19:41:29.186Z,95.00
2018-03-04T19:43:56.727Z,95.20
2018-03-04T19:46:24.249Z,95.40
2018-03-04T19:48:51.729Z,95.60
2018-03-04T19:51:19.232Z,95.80
2018-03-04T19:53:46.732Z,96.10
2018-03-04T19:56:14.277Z,96.10
2018-03-04T19:58:41.796Z,96.20
2018-03-04T20:01:10.109Z,96.40
2018-03-04T20:03:37.615Z,96.40
2018-03-04T20:06:05.101Z,96.50
2018-03-04T20:08:32.634Z,96.70
2018-03-04T20:11:00.128Z,96.70
2018-03-04T20:13:27.681Z,96.90
2018-03-04T20:15:55.192Z,97.00
2018-03-04T20:18:22.711Z,97.20
2018-03-04T20:20:50.252Z,97.40
2018-03-04T20:23:17.760Z,97.60
2018-03-04T20:25:45.308Z,98.00
2018-03-04T20:28:12.815Z,98.20
2018-03-04T20:30:40.327Z,98.80
2018-03-04T20:33:07.875Z,99.30
2018-03-04T20:35:36.927Z,99.60
2018-03-04T20:38:05.191Z,99.90
2018-03-04T20:40:32.719Z,99.90
2018-03-04T20:43:00.227Z,99.90
2018-03-04T20:45:28.772Z,99.90
2018-03-04T20:47:56.311Z,99.90
2018-03-04T20:50:23.811Z,99.90
2018-03-04T20:52:51.323Z,99.90
2018-03-04T20:55:22.668Z,99.90
2018-03-04T20:57:50.192Z,99.90
2018-03-04T21:00:17.835Z,99.90
2018-03-04T21:02:45.357Z,99.90
2018-03-04T21:05:12.883Z,99.90
2018-03-04T21:07:40.360Z,99.90
2018-03-04T21:10:07.918Z,99.90
2018-03-04T21:12:35.420Z,99.90
2018-03-04T21:15:02.911Z,99.90
2018-03-04T21:17:34.138Z,99.90
2018-03-04T21:20:02.225Z,99.90
2018-03-04T21:22:29.741Z,99.90
2018-03-04T21:24:57.227Z,99.90
2018-03-04T21:27:25.539Z,99.90
2018-03-04T21:29:53.097Z,99.90
2018-03-04T21:32:20.606Z,99.90
2018-03-04T21:34:48.166Z,99.90
2018-03-04T21:37:17.184Z,99.90
2018-03-04T21:39:45.483Z,99.90
2018-03-04T21:42:13.047Z,99.90
2018-03-04T21:44:41.270Z,99.90
2018-03-04T21:47:08.780Z,99.90
2018-03-04T21:49:36.276Z,99.90
2018-03-04T21:52:03.792Z,99.90
2018-03-04T21:54:31.282Z,99.90
2018-03-04T21:56:58.801Z,99.90
2018-03-04T21:59:26.307Z,99.90
2018-03-04T22:01:54.636Z,99.90
2018-03-04T22:04:22.147Z,99.90
2018-03-04T22:06:49.674Z,99.90
2018-03-04T22:09:17.164Z,99.90
2018-03-04T22:11:44.677Z,99.90
2018-03-04T22:14:12.195Z,99.90
2018-03-04T22:16:39.709Z,99.90
2018-03-04T22:19:07.234Z,99.90
2018-03-04T22:21:34.759Z,99.90
2018-03-04T22:24:02.263Z,99.90
2018-03-04T22:26:29.810Z,99.90
2018-03-04T22:28:57.309Z,99.90
2018-03-04T22:31:24.819Z,99.90
2018-03-04T22:33:52.326Z,99.90
2018-03-04T22:36:19.853Z,99.90
2018-03-04T22:38:47.331Z,99.90
2018-03-04T22:41:14.857Z,99.90
2018-03-04T22:43:42.363Z,99.90
2018-03-04T22:46:09.856Z,99.90
2018-03-04T22:48:37.383Z,99.90
2018-03-04T22:51:04.933Z,99.90
2018-03-04T22:53:32.439Z,99.90
2018-03-04T22:55:59.932Z,99.90
2018-03-04T22:58:27.416Z,99.90
2018-03-04T23:00:54.938Z,99.90
2018-03-04T23:03:22.422Z,99.90
2018-03-04T23:05:49.903Z,99.90
2018-03-04T23:08:17.436Z,99.90
2018-03-04T23:10:44.937Z,99.90
2018-03-04T23:13:13.240Z,99.90
2018-03-04T23:15:40.724Z,99.90
2018-03-04T23:18:08.970Z,99.90
2018-03-04T23:20:36.473Z,99.90
2018-03-04T23:23:03.941Z,99.90
2018-03-04T23:25:31.447Z,99.90
2018-03-04T23:27:58.933Z,99.90
2018-03-04T23:30:26.452Z,99.90
2018-03-04T23:32:53.959Z,99.90
2018-03-04T23:35:21.442Z,99.90
2018-03-04T23:37:49.720Z,99.90
2018-03-04T23:40:17.991Z,99.90
2018-03-04T23:42:46.239Z,99.90
2018-03-04T23:45:13.775Z,99.90
2018-03-04T23:47:41.268Z,99.90
2018-03-04T23:50:08.758Z,99.90
2018-03-04T23:52:36.287Z,99.90
2018-03-04T23:55:03.764Z,99.90
2018-03-04T23:57:32.035Z,99.90
